Search for airport 
image banner adimage banner adimage banner ad
image banner ad

7PA1 - Warren Airpark

Located in Warren, United States

ICAO - 7PA1, IATA -

Data provided by Airmate  

General information

Coordinates: N41°51'57" W79°12'22"
Elevation is 1790 feet MSL.
Magnetic variation is -09° East
View others Airports in Pennsylvania

Operational data

Special qualification required
Current time UTC:
Current local time:
Weather at : KJHW - Chautauqua County/Jamestown ( 32 km )
METAR: KJHW 091722Z AUTO 11011KT 7SM -RA BKN020 BKN027 OVC040 04/01 A2993 RMK AO2 P0000
TAF: KJHW 091501Z 0915/1012 18009KT P6SM BKN025 FM091700 14006KT 5SM -RA BR OVC012 FM092100 07010KT 2SM RA BR OVC003 FM100400 36008KT P6SM OVC003
View NOTAMs / SUP AIP / TFR affecting this airport [VIEW]
Communications frequencies: [VIEW]

Runways:

RWY identifierQFULength (ft)Width (ft)SurfaceLDA (ft)
061900100GRASS
241900100GRASS

Airport contact information

Address: Warren United States

Satellite view of 7PA1